AirNav   Duncan Aviation - Near you to keep you 
flying
 
 1163 users online  

6MN0 Sky Blue Airfield
Ponsford, Minnesota, USA

GOING TO PONSFORD?


FAA INFORMATION EFFECTIVE 15 JULY 2021

Location

FAA Identifier: 6MN0
Lat/Long: 47-03-20.0000N 095-25-23.0000W
47-03.333333N 095-25.383333W
47.0555556,-95.4230556
(estimated)
Elevation: 1620 ft. / 494 m (estimated)
From city: 6 miles NW of PONSFORD, MN
Time zone: UTC -5 (UTC -6 during Standard Time)
Zip code: 56575

Airport Operations

Airport use: Private use. Permission required prior to landing
Activation date: 12/2004
Control tower: no
ARTCC: MINNEAPOLIS CENTER
FSS: PRINCETON FLIGHT SERVICE STATION
Attendance: IREG
Wind indicator: yes
Segmented circle: no

Airport Communications

WX ASOS at PKD (17 nm SE): 110.6 (218-732-0920)

Nearby radio navigation aids

VOR radial/distance  VOR name  Freq  Var
DTLr052/23.5DETROIT LAKES VOR/DME111.2002E
IDJr216/33.9LAKE BEMIDJI VOR/DME110.0001E

Airport Services

Runway Information

Runway 18/36

Dimensions: 3700 x 130 ft. / 1128 x 40 m
Surface: turf
RUNWAY 18  RUNWAY 36
Traffic pattern: leftleft

Airport Ownership and Management from official FAA records

Ownership: Privately-owned
Owner: PATRICK SWEENEY
3802 20TH ST N
FARGO, ND 58102
Phone (701) 371-4060
Manager: PATRICK SWEENEY
3802 20TH ST N
FARGO, ND 58102
Phone (701) 371-4060

Airport Operational Statistics

Aircraft based on the field: 1
Single engine airplanes: 1
    

Additional Remarks

FOR CD CTC MINNEAPOLIS ARTCC AT 651-463-5588.

Instrument Procedures

There are no published instrument procedures at 6MN0.

Some nearby airports with instrument procedures:

KPKD - Park Rapids Municipal Airport-Konshok Field (17 nm SE)
KDTL - Detroit Lakes Airport-Wething Field (23 nm SW)
3N8 - Mahnomen County Airport (24 nm NW)
16D - Perham Municipal Airport (28 nm S)
Y49 - Walker Municipal Airport (32 nm E)
 
Loc | Ops | Rwys | IFR | FBO | Links
Com | Nav | Svcs | Stats | Notes
Area around 6MN0 (Sky Blue Airfield)
 
Road maps at: MapQuest Bing Google
 
Aerial photo
No photo
 
Sectional chart

 
Airport distance calculator
Flying to Sky Blue Airfield? Find the distance to fly.

From to 6MN0

Sunrise and sunset
Times for 28-Jul-2021
 Local
(UTC-5)
 Zulu
(UTC)
Morning civil twilight05:2110:21
Sunrise05:5710:57
Sunset20:5901:59
Evening civil twilight21:3502:35

Current date and time
Zulu (UTC)  29-Jul-2021 00:01:43
Local (UTC-5)  28-Jul-2021 19:01:43
 
METAR
KPKD 
17nm SE 
282353Z AUTO 32008KT 10SM FEW037 29/22 A2986 RMK AO2 SLP103 T02940217 10294 20272 50009
KDTL 
23nm SW 
282355Z AUTO 32010G18KT 10SM CLR 28/23 A2989 RMK AO2
K3N8 
24nm NW 
282355Z AUTO 33012G19KT 10SM SCT021 SCT041 BKN048 28/24 A2989 RMK AO2 T02790235 10300 20273
KY49 
32nm E 
282355Z AUTO 31003KT 10SM OVC050 29/23 A2985 RMK AO2 LTG DSNT N T02850225 10297 20260
KBJI 
34nm NE 
282355Z AUTO 31009KT 10SM SCT036 SCT048 29/22 A2986 RMK AO2 LTG DSNT NE T02940215 10307 20275
TAF
KBJI 
34nm NE 
282124Z 2821/2918 29009KT P6SM BKN040 FM282300 34010KT P6SM BKN100 FM290100 35007KT P6SM SCT150
NOTAMs
Click for the latest NOTAMs
NOTAMs are issued by the DoD/FAA and will open in a separate window not controlled by AirNav.

 

 
 

Would you like to see your business listed on this page?

 If your business provides an interesting product or service to pilots, flight crews, aircraft, or users of the Sky Blue Airfield, you should consider listing it here.  To start the listing process, click on the button below
 
Add a business
 

Other Pages about Sky Blue Airfield

Update a link
 
Copyright © AirNav, LLC. All rights reserved. Privacy Policy  Contact